Time;durP1;ratioP1;P1;durP2;ratioP2;P2;SDS_P1;SDS_P2;PMS_P1;PMS_P2;Temp;Humidity;BMP_temperature;BMP_pressure;BME280_temperature;BME280_humidity;BME280_pressure;Samples;Min_cycle;Max_cycle;Signal;HPM_P1;HPM_P2
2022/09/06 00:01:45;;;;;;;1.58;0.65;;;16.90;70.80;;;;;;5057940;28;20124;-74
2022/09/06 00:04:11;;;;;;;0.98;0.60;;;16.90;70.70;;;;;;5053622;28;20146;-74
2022/09/06 00:06:37;;;;;;;0.88;0.40;;;16.90;70.70;;;;;;5055949;28;20123;-75
2022/09/06 00:09:03;;;;;;;1.30;0.70;;;16.90;70.60;;;;;;5054293;28;20285;-74
2022/09/06 00:11:29;;;;;;;1.30;0.47;;;16.90;70.50;;;;;;5055625;28;20621;-74
2022/09/06 00:13:54;;;;;;;0.40;0.40;;;16.90;70.40;;;;;;5038446;28;20055;-74
2022/09/06 00:16:23;;;;;;;0.40;0.40;;;16.80;70.40;;;;;;5041606;28;20047;-73
2022/09/06 00:18:53;;;;;;;0.68;0.55;;;16.80;70.30;;;;;;5054644;28;20045;-73
2022/09/06 00:21:22;;;;;;;0.60;0.50;;;16.90;70.20;;;;;;5056171;28;20044;-74
2022/09/06 00:23:48;;;;;;;1.15;0.30;;;16.80;70.00;;;;;;5054711;28;20051;-74
2022/09/06 00:26:14;;;;;;;0.70;0.50;;;16.80;70.00;;;;;;5055140;28;20032;-75
2022/09/06 00:28:40;;;;;;;0.55;0.43;;;16.80;70.80;;;;;;5050530;28;20036;-74
2022/09/06 00:31:11;;;;;;;1.50;0.52;;;16.80;70.20;;;;;;5053031;28;20039;-74
2022/09/06 00:33:38;;;;;;;1.20;0.30;;;16.70;70.10;;;;;;5056095;28;20036;-75
2022/09/06 00:36:04;;;;;;;1.23;0.50;;;16.80;70.00;;;;;;5055596;28;20033;-74
2022/09/06 00:38:30;;;;;;;0.50;0.40;;;16.80;70.00;;;;;;5055018;28;20028;-74
2022/09/06 00:40:56;;;;;;;0.63;0.40;;;16.70;69.90;;;;;;5051624;28;20110;-74
2022/09/06 00:43:22;;;;;;;0.65;0.40;;;16.70;69.80;;;;;;5052576;28;20166;-74
2022/09/06 00:45:48;;;;;;;0.45;0.40;;;16.70;69.80;;;;;;5055236;28;20414;-74
2022/09/06 00:48:15;;;;;;;1.10;0.50;;;16.70;69.80;;;;;;5055161;28;20050;-74
2022/09/06 00:50:43;;;;;;;1.50;0.43;;;16.70;69.80;;;;;;5053785;28;20491;-75
2022/09/06 00:53:09;;;;;;;0.50;0.50;;;16.70;70.00;;;;;;5047248;28;20043;-76
2022/09/06 00:55:35;;;;;;;1.45;0.35;;;16.70;70.00;;;;;;5052400;28;20107;-76
2022/09/06 00:58:02;;;;;;;0.73;0.40;;;16.70;70.00;;;;;;5053994;28;20066;-75
2022/09/06 01:00:28;;;;;;;0.38;0.32;;;16.70;70.10;;;;;;5052599;28;20079;-76
2022/09/06 01:02:54;;;;;;;0.52;0.35;;;16.70;70.00;;;;;;5052987;28;20044;-76
2022/09/06 01:05:27;;;;;;;0.30;0.30;;;16.70;70.10;;;;;;5054842;28;20057;-76
2022/09/06 01:08:11;;;;;;;1.30;0.40;;;16.70;70.00;;;;;;5045810;28;20060;-76
2022/09/06 01:11:01;;;;;;;0.43;0.40;;;16.70;70.00;;;;;;5054309;28;20040;-75
2022/09/06 01:13:44;;;;;;;0.30;0.30;;;16.70;69.80;;;;;;5023431;28;20422;-76
2022/09/06 01:16:27;;;;;;;0.95;0.30;;;16.70;69.90;;;;;;5023144;28;20040;-76
2022/09/06 01:19:05;;;;;;;0.30;0.30;;;16.70;70.00;;;;;;5007643;28;20033;-76
2022/09/06 01:21:50;;;;;;;0.90;0.50;;;16.70;69.80;;;;;;5006805;28;20037;-75
2022/09/06 01:24:30;;;;;;;0.50;0.30;;;16.70;70.00;;;;;;4993332;28;20502;-77
2022/09/06 01:27:27;;;;;;;0.30;0.30;;;16.70;69.80;;;;;;5022078;28;20040;-77
2022/09/06 01:30:01;;;;;;;;;;;16.70;69.50;;;;;;5007687;28;20441;-76
2022/09/06 01:32:36;;;;;;;0.77;0.35;;;16.70;69.50;;;;;;5026670;28;20015;-76
2022/09/06 01:35:25;;;;;;;0.30;0.30;;;16.60;69.50;;;;;;5025448;28;20037;-75
2022/09/06 01:37:51;;;;;;;0.50;0.40;;;16.70;69.50;;;;;;5008481;28;20076;-75
2022/09/06 01:40:17;;;;;;;0.25;0.25;;;16.70;69.50;;;;;;5022033;28;20061;-75
2022/09/06 01:42:45;;;;;;;0.47;0.35;;;16.70;69.50;;;;;;5020501;28;20430;-74
2022/09/06 01:45:15;;;;;;;0.32;0.20;;;16.70;69.50;;;;;;5022203;28;20057;-74
2022/09/06 01:47:50;;;;;;;0.30;0.30;;;16.70;69.50;;;;;;5021475;28;20530;-74
2022/09/06 01:50:30;;;;;;;0.60;0.47;;;16.60;69.50;;;;;;5032226;28;20036;-73
2022/09/06 01:53:08;;;;;;;0.30;0.30;;;16.70;69.60;;;;;;5052667;28;20048;-73
2022/09/06 01:55:39;;;;;;;0.30;0.25;;;16.70;69.70;;;;;;5064000;28;20032;-74
2022/09/06 01:58:35;;;;;;;1.55;0.40;;;16.60;69.60;;;;;;5053087;28;20174;-74
2022/09/06 02:01:17;;;;;;;0.60;0.30;;;16.70;69.50;;;;;;5066829;28;20458;-74
2022/09/06 02:04:18;;;;;;;0.22;0.20;;;16.70;69.50;;;;;;5051000;28;20448;-75
2022/09/06 02:06:49;;;;;;;0.30;0.30;;;16.70;69.40;;;;;;5048108;28;20079;-75
2022/09/06 02:09:22;;;;;;;0.30;0.30;;;16.70;69.50;;;;;;5053143;28;20082;-75
2022/09/06 02:11:58;;;;;;;0.40;0.35;;;16.70;69.40;;;;;;5053106;28;20032;-74
2022/09/06 02:14:45;;;;;;;0.63;0.30;;;16.70;69.20;;;;;;5052769;28;20067;-74
2022/09/06 02:17:17;;;;;;;0.28;0.28;;;16.70;69.00;;;;;;5035608;28;20179;-75
2022/09/06 02:19:47;;;;;;;0.30;0.28;;;16.70;69.00;;;;;;5053352;28;20048;-74
2022/09/06 02:22:17;;;;;;;0.20;0.20;;;16.70;69.00;;;;;;5052506;28;20107;-75
2022/09/06 02:24:46;;;;;;;0.98;0.32;;;16.70;68.90;;;;;;5048366;28;20028;-75
2022/09/06 02:27:13;;;;;;;1.27;0.30;;;16.60;68.80;;;;;;5051576;28;20040;-74
2022/09/06 02:29:40;;;;;;;0.20;0.17;;;16.70;69.10;;;;;;5053111;28;20099;-74
2022/09/06 02:32:19;;;;;;;0.70;0.25;;;16.70;68.90;;;;;;5048756;28;20053;-75
2022/09/06 02:34:46;;;;;;;0.28;0.28;;;16.70;68.90;;;;;;5044663;28;20039;-75
2022/09/06 02:37:14;;;;;;;0.30;0.30;;;16.70;68.90;;;;;;5053680;28;20040;-74
2022/09/06 02:39:40;;;;;;;1.13;0.30;;;16.70;68.90;;;;;;5052580;28;20458;-74
2022/09/06 02:42:09;;;;;;;0.25;0.25;;;16.70;69.20;;;;;;5054438;28;20516;-75
2022/09/06 02:44:35;;;;;;;0.30;0.20;;;16.70;69.10;;;;;;5052329;28;20128;-75
2022/09/06 02:47:02;;;;;;;0.30;0.30;;;16.70;69.00;;;;;;5052199;28;20044;-74
2022/09/06 02:49:28;;;;;;;1.73;0.50;;;16.70;68.80;;;;;;5050156;28;20076;-76
2022/09/06 02:51:55;;;;;;;0.30;0.25;;;16.70;68.60;;;;;;5052416;28;20413;-74
2022/09/06 02:54:22;;;;;;;0.85;0.30;;;16.70;68.70;;;;;;5052732;28;20503;-75
2022/09/06 02:56:48;;;;;;;2.22;0.30;;;16.70;68.50;;;;;;5049480;28;20443;-75
2022/09/06 02:59:14;;;;;;;0.20;0.20;;;16.70;68.40;;;;;;5054017;28;20504;-75
2022/09/06 03:01:40;;;;;;;1.05;0.40;;;16.70;68.60;;;;;;5044706;28;20126;-75
2022/09/06 03:04:07;;;;;;;0.30;0.30;;;16.60;68.60;;;;;;5051523;28;20029;-75
2022/09/06 03:06:33;;;;;;;1.17;0.40;;;16.70;68.70;;;;;;5050993;28;20535;-75
2022/09/06 03:08:59;;;;;;;0.30;0.30;;;16.60;68.50;;;;;;5053477;28;20047;-74
2022/09/06 03:11:26;;;;;;;0.30;0.30;;;16.70;68.40;;;;;;5052435;28;20070;-75
2022/09/06 03:13:52;;;;;;;0.82;0.40;;;16.60;68.40;;;;;;5049861;28;20420;-75
2022/09/06 03:16:18;;;;;;;0.30;0.30;;;16.60;68.40;;;;;;5051343;28;20086;-75
2022/09/06 03:18:45;;;;;;;1.52;0.30;;;16.70;68.30;;;;;;5052849;28;20414;-75
2022/09/06 03:21:12;;;;;;;1.33;0.30;;;16.60;68.30;;;;;;5051200;28;20040;-75
2022/09/06 03:23:38;;;;;;;1.65;0.50;;;16.70;68.30;;;;;;5049786;28;20040;-75
2022/09/06 03:26:05;;;;;;;0.43;0.40;;;16.70;68.30;;;;;;5051508;28;20037;-75
2022/09/06 03:28:31;;;;;;;0.35;0.35;;;16.70;68.10;;;;;;5051625;28;20036;-76
2022/09/06 03:30:57;;;;;;;1.73;0.55;;;16.60;68.40;;;;;;5053612;28;20039;-74
2022/09/06 03:33:23;;;;;;;1.48;0.68;;;16.60;67.40;;;;;;5054287;28;20065;-74
2022/09/06 03:35:57;;;;;;;1.95;0.70;;;16.60;67.20;;;;;;5055459;28;20025;-74
2022/09/06 03:38:24;;;;;;;1.52;0.73;;;16.60;67.00;;;;;;5056310;28;20033;-75
2022/09/06 03:40:51;;;;;;;1.65;0.70;;;16.50;67.00;;;;;;5054538;28;20071;-75
2022/09/06 03:43:18;;;;;;;1.50;0.80;;;16.50;67.00;;;;;;5052459;28;20464;-74
2022/09/06 03:45:46;;;;;;;1.05;0.77;;;16.50;67.00;;;;;;5056668;28;20052;-75
2022/09/06 03:48:13;;;;;;;1.02;0.50;;;16.40;67.00;;;;;;5054220;28;20075;-75
2022/09/06 03:50:46;;;;;;;0.95;0.65;;;16.40;67.00;;;;;;5054007;28;20043;-75
2022/09/06 03:53:13;;;;;;;2.13;0.63;;;16.40;67.00;;;;;;5051711;28;20066;-74
2022/09/06 03:55:39;;;;;;;0.85;0.65;;;16.40;67.00;;;;;;5055605;28;20033;-75
2022/09/06 03:58:05;;;;;;;1.73;0.70;;;16.40;67.00;;;;;;5054714;28;20102;-75
2022/09/06 04:00:32;;;;;;;3.35;1.00;;;16.40;67.00;;;;;;5053526;28;20036;-75
2022/09/06 04:02:58;;;;;;;1.45;0.73;;;16.40;67.10;;;;;;5053170;28;20073;-76
2022/09/06 04:05:24;;;;;;;1.40;0.77;;;16.30;67.20;;;;;;5058325;28;20072;-75
2022/09/06 04:07:50;;;;;;;0.95;0.85;;;16.30;67.30;;;;;;5055938;28;20482;-76
2022/09/06 04:10:16;;;;;;;0.95;0.90;;;16.30;67.20;;;;;;5038023;28;20535;-75
2022/09/06 04:12:43;;;;;;;1.95;0.93;;;16.30;67.10;;;;;;5046600;28;20392;-77
2022/09/06 04:15:10;;;;;;;0.70;0.60;;;16.30;66.90;;;;;;5053121;28;20033;-78
2022/09/06 04:17:36;;;;;;;1.85;0.80;;;16.30;66.90;;;;;;5052798;28;20036;-77
2022/09/06 04:20:03;;;;;;;1.15;0.70;;;16.20;66.80;;;;;;5054298;28;20067;-78
2022/09/06 04:22:29;;;;;;;2.45;0.90;;;16.20;66.80;;;;;;5053681;28;20091;-78
2022/09/06 04:24:55;;;;;;;1.15;0.70;;;16.20;66.80;;;;;;5054661;28;20038;-74
2022/09/06 04:27:21;;;;;;;1.00;0.90;;;16.20;66.90;;;;;;5055158;28;20029;-78
2022/09/06 04:29:47;;;;;;;1.73;0.80;;;16.20;67.00;;;;;;5037313;28;20033;-77
2022/09/06 04:32:13;;;;;;;2.28;0.85;;;16.20;67.50;;;;;;5050874;28;20056;-76
2022/09/06 04:34:39;;;;;;;3.25;1.00;;;16.20;67.50;;;;;;5053252;28;20053;-78
2022/09/06 04:37:05;;;;;;;3.55;1.17;;;16.20;68.10;;;;;;5055396;28;20068;-77
2022/09/06 04:39:31;;;;;;;4.22;1.27;;;16.20;68.80;;;;;;5051661;28;20032;-77
2022/09/06 04:41:56;;;;;;;2.63;1.40;;;16.20;69.40;;;;;;5053860;28;20124;-77
2022/09/06 04:44:22;;;;;;;4.07;1.35;;;16.20;70.40;;;;;;5064000;28;20028;-77
2022/09/06 04:46:48;;;;;;;5.72;2.08;;;16.20;71.00;;;;;;5070862;28;20037;-77
2022/09/06 04:49:14;;;;;;;3.85;1.55;;;16.30;71.10;;;;;;5059853;28;20472;-77
2022/09/06 04:51:40;;;;;;;6.60;1.60;;;16.30;71.10;;;;;;5050037;28;20029;-78
2022/09/06 04:54:06;;;;;;;3.38;1.45;;;16.30;70.80;;;;;;5055541;28;20029;-79
2022/09/06 04:56:32;;;;;;;2.80;1.35;;;16.30;69.90;;;;;;5053228;28;20506;-77
2022/09/06 04:58:58;;;;;;;2.63;1.30;;;16.30;69.30;;;;;;5055808;28;20017;-76
2022/09/06 05:01:25;;;;;;;4.38;1.58;;;16.40;69.10;;;;;;5037823;28;20584;-77
2022/09/06 05:03:50;;;;;;;6.80;1.58;;;16.40;69.40;;;;;;5054098;28;20591;-76
2022/09/06 05:06:22;;;;;;;5.28;1.20;;;16.40;70.20;;;;;;5036173;28;20046;-75
2022/09/06 05:08:49;;;;;;;4.10;1.27;;;16.40;70.70;;;;;;5051865;28;20040;-75
2022/09/06 05:11:15;;;;;;;3.22;1.20;;;16.50;70.60;;;;;;5052516;28;20040;-75
2022/09/06 05:13:41;;;;;;;3.60;1.50;;;16.50;70.40;;;;;;5053173;28;20416;-75
2022/09/06 05:16:08;;;;;;;4.13;1.55;;;16.50;70.40;;;;;;5053640;28;20063;-76
2022/09/06 05:18:34;;;;;;;3.92;1.45;;;16.50;70.10;;;;;;5056096;28;20380;-76
2022/09/06 05:21:01;;;;;;;5.25;1.65;;;16.50;69.90;;;;;;5050853;28;20407;-75
2022/09/06 05:23:27;;;;;;;7.15;1.20;;;16.50;70.10;;;;;;5054663;28;20389;-75
2022/09/06 05:25:53;;;;;;;3.20;0.77;;;16.50;69.80;;;;;;5054028;28;20559;-75
2022/09/06 05:28:19;;;;;;;1.88;0.90;;;16.50;69.40;;;;;;5050790;28;20037;-75
2022/09/06 05:30:46;;;;;;;4.20;0.88;;;16.50;68.80;;;;;;5054995;28;20037;-76
2022/09/06 05:33:18;;;;;;;2.35;0.90;;;16.50;68.70;;;;;;5050596;28;20064;-76
2022/09/06 05:35:44;;;;;;;3.33;1.23;;;16.50;68.40;;;;;;5069966;28;20056;-76
2022/09/06 05:38:10;;;;;;;3.00;0.88;;;16.50;68.30;;;;;;5052577;28;20577;-75
2022/09/06 05:40:36;;;;;;;3.58;0.85;;;16.50;68.20;;;;;;5053686;28;20033;-74
2022/09/06 05:43:02;;;;;;;3.22;1.30;;;16.50;68.50;;;;;;5053592;28;20084;-74
2022/09/06 05:45:28;;;;;;;2.17;1.02;;;16.50;68.70;;;;;;5053870;28;21084;-76
2022/09/06 05:47:53;;;;;;;3.15;0.90;;;16.50;68.60;;;;;;5054758;28;20041;-76
2022/09/06 05:50:20;;;;;;;2.50;0.98;;;16.60;68.50;;;;;;5053526;28;20090;-76
2022/09/06 05:52:46;;;;;;;3.72;0.90;;;16.60;68.30;;;;;;5052017;28;20038;-76
2022/09/06 05:55:12;;;;;;;2.28;0.90;;;16.60;68.00;;;;;;5051754;28;20106;-77
2022/09/06 05:57:38;;;;;;;3.47;0.90;;;16.60;68.00;;;;;;5052262;28;20037;-76
2022/09/06 06:00:06;;;;;;;2.08;0.90;;;16.60;68.40;;;;;;5053900;28;20035;-76
2022/09/06 06:02:37;;;;;;;2.15;1.10;;;16.60;68.70;;;;;;5052785;28;20373;-77
2022/09/06 06:05:03;;;;;;;3.05;0.90;;;16.70;69.10;;;;;;5051316;28;20329;-76
2022/09/06 06:07:29;;;;;;;2.40;0.90;;;16.70;69.10;;;;;;5067423;28;20033;-77
2022/09/06 06:09:55;;;;;;;1.48;0.82;;;16.70;69.20;;;;;;5050572;28;20537;-78
2022/09/06 06:12:21;;;;;;;3.58;1.20;;;16.80;68.90;;;;;;5052637;28;20094;-77
2022/09/06 06:14:47;;;;;;;2.80;1.02;;;16.80;68.90;;;;;;5063125;28;20474;-77
2022/09/06 06:17:13;;;;;;;1.90;0.90;;;16.80;68.80;;;;;;5069588;28;20036;-77
2022/09/06 06:19:39;;;;;;;5.38;1.70;;;16.80;68.80;;;;;;5050419;28;20040;-77
2022/09/06 06:22:05;;;;;;;2.85;1.10;;;16.80;69.00;;;;;;5052593;28;20075;-77
2022/09/06 06:24:30;;;;;;;1.38;0.70;;;16.90;69.30;;;;;;5048857;28;20516;-77
2022/09/06 06:26:56;;;;;;;1.48;1.10;;;16.90;69.40;;;;;;5032905;28;20040;-77
2022/09/06 06:29:24;;;;;;;1.48;1.17;;;17.00;69.20;;;;;;5051034;28;20079;-77
2022/09/06 06:31:50;;;;;;;2.10;1.23;;;17.00;68.70;;;;;;5048887;28;20037;-77
2022/09/06 06:34:19;;;;;;;2.30;1.33;;;16.90;68.40;;;;;;5065653;28;20082;-77
2022/09/06 06:36:45;;;;;;;1.30;1.00;;;17.00;68.40;;;;;;5070809;28;20040;-77
2022/09/06 06:39:11;;;;;;;2.78;1.30;;;17.00;68.30;;;;;;5051749;28;20186;-77
2022/09/06 06:41:37;;;;;;;1.33;1.08;;;17.00;68.10;;;;;;5052494;28;20495;-79
2022/09/06 06:44:19;;;;;;;3.38;1.55;;;16.90;68.20;;;;;;5061753;28;20037;-77
2022/09/06 06:46:45;;;;;;;2.15;1.20;;;17.00;68.30;;;;;;5051846;28;20037;-77
2022/09/06 06:49:11;;;;;;;1.33;1.23;;;17.00;68.30;;;;;;5048257;28;20029;-76
2022/09/06 06:51:38;;;;;;;2.05;1.55;;;17.10;68.20;;;;;;5051442;28;20040;-76
2022/09/06 06:54:04;;;;;;;1.73;1.52;;;17.10;68.10;;;;;;5051927;28;20467;-76
2022/09/06 06:56:34;;;;;;;1.40;1.27;;;17.10;68.00;;;;;;5053722;28;20114;-78
2022/09/06 06:59:03;;;;;;;2.47;1.50;;;17.20;68.00;;;;;;5053916;28;20182;-76
2022/09/06 07:01:31;;;;;;;3.55;1.50;;;17.20;68.10;;;;;;5060012;28;20041;-76
2022/09/06 07:03:57;;;;;;;3.08;1.30;;;17.20;67.80;;;;;;5050484;28;20029;-76
2022/09/06 07:06:24;;;;;;;1.55;1.23;;;17.20;67.70;;;;;;5053941;28;20128;-76
2022/09/06 07:08:50;;;;;;;2.92;1.52;;;17.30;67.70;;;;;;5055856;28;20394;-77
2022/09/06 07:11:17;;;;;;;2.08;1.25;;;17.30;67.70;;;;;;5055566;28;20734;-77
2022/09/06 07:13:43;;;;;;;1.30;1.17;;;17.40;67.80;;;;;;5055171;28;20048;-77
2022/09/06 07:16:18;;;;;;;1.63;1.17;;;17.40;68.40;;;;;;5054222;28;20142;-77
2022/09/06 07:18:44;;;;;;;1.92;1.63;;;17.50;67.60;;;;;;5047289;28;20040;-76
2022/09/06 07:21:19;;;;;;;1.42;1.40;;;17.60;67.00;;;;;;5055922;28;20033;-76
2022/09/06 07:23:45;;;;;;;3.53;1.40;;;17.50;65.60;;;;;;5055040;28;20035;-76
2022/09/06 07:26:19;;;;;;;2.22;1.63;;;17.50;64.80;;;;;;5055997;28;20033;-77
2022/09/06 07:28:46;;;;;;;3.58;1.55;;;17.40;64.30;;;;;;5048533;28;20032;-77
2022/09/06 07:31:13;;;;;;;2.47;2.08;;;17.40;64.10;;;;;;5056668;28;20035;-77
2022/09/06 07:33:39;;;;;;;2.03;1.52;;;17.40;63.90;;;;;;5052032;28;20032;-77
2022/09/06 07:36:07;;;;;;;4.93;1.48;;;17.30;63.70;;;;;;5056511;28;20041;-77
2022/09/06 07:38:34;;;;;;;2.97;1.42;;;17.30;63.70;;;;;;5054543;28;20029;-76
2022/09/06 07:41:10;;;;;;;2.03;1.45;;;17.20;64.00;;;;;;5056934;28;20090;-77
2022/09/06 07:43:36;;;;;;;;;;;17.10;63.80;;;;;;5066047;28;20426;-76
2022/09/06 07:46:06;;;;;;;;;;;17.10;63.40;;;;;;5056031;28;19923;-76
2022/09/06 07:48:35;;;;;;;1.88;1.67;;;17.00;63.80;;;;;;5060991;28;19917;-78
2022/09/06 07:51:10;;;;;;;4.85;1.48;;;17.00;63.80;;;;;;5052670;28;20119;-75
2022/09/06 07:53:37;;;;;;;1.50;1.40;;;16.90;63.30;;;;;;5038497;28;20037;-76
2022/09/06 07:56:05;;;;;;;2.00;1.80;;;16.90;63.60;;;;;;5054771;28;20025;-77
2022/09/06 07:58:32;;;;;;;2.97;2.10;;;16.80;63.20;;;;;;5055571;28;20095;-77
2022/09/06 08:01:36;;;;;;;2.05;1.90;;;16.70;63.30;;;;;;5052991;28;20029;-76
2022/09/06 08:04:13;;;;;;;2.50;1.85;;;16.70;63.80;;;;;;5015086;28;20053;-77
2022/09/06 08:06:43;;;;;;;2.72;1.92;;;16.60;63.90;;;;;;5014444;28;20689;-76
2022/09/06 08:09:10;;;;;;;3.92;2.10;;;16.60;64.20;;;;;;4997975;28;20088;-76
2022/09/06 08:11:37;;;;;;;2.05;1.90;;;16.60;64.30;;;;;;5014682;28;20046;-75
2022/09/06 08:14:06;;;;;;;2.10;1.98;;;16.50;64.70;;;;;;5015421;28;20049;-76
2022/09/06 08:16:34;;;;;;;1.70;1.60;;;16.50;64.90;;;;;;5013613;28;20563;-76
2022/09/06 08:19:09;;;;;;;3.05;1.75;;;16.50;64.90;;;;;;5014163;28;20046;-76
2022/09/06 08:21:35;;;;;;;2.05;1.83;;;16.40;65.20;;;;;;5015143;28;20324;-77
2022/09/06 08:24:04;;;;;;;1.50;1.40;;;16.40;65.50;;;;;;5014153;28;20086;-76
2022/09/06 08:26:32;;;;;;;1.35;1.25;;;16.40;65.60;;;;;;4997805;28;20057;-76
2022/09/06 08:29:00;;;;;;;1.27;1.15;;;16.30;65.60;;;;;;5012994;28;20076;-76
2022/09/06 08:31:28;;;;;;;1.58;1.25;;;16.20;65.30;;;;;;5013267;28;20673;-76
2022/09/06 08:33:54;;;;;;;1.83;1.05;;;16.20;65.80;;;;;;4997622;28;20137;-77
2022/09/06 08:36:21;;;;;;;3.10;1.10;;;16.20;66.10;;;;;;5013760;28;20045;-77
2022/09/06 08:38:46;;;;;;;1.30;1.00;;;16.20;66.20;;;;;;5010838;28;20041;-77
2022/09/06 08:41:15;;;;;;;2.92;1.00;;;16.20;66.50;;;;;;5035815;28;20080;-77
2022/09/06 08:44:05;;;;;;;1.88;0.85;;;16.30;66.90;;;;;;5032038;28;20057;-77
2022/09/06 08:46:39;;;;;;;1.52;1.08;;;16.40;66.70;;;;;;5034768;28;20033;-77
2022/09/06 08:49:05;;;;;;;2.10;1.10;;;16.40;67.00;;;;;;5034710;28;20033;-77
2022/09/06 08:51:44;;;;;;;1.95;0.90;;;16.40;66.90;;;;;;5014197;28;20068;-77
2022/09/06 08:54:42;;;;;;;1.15;0.95;;;16.50;66.40;;;;;;5035373;28;20508;-75
2022/09/06 08:57:40;;;;;;;2.33;1.00;;;16.60;66.10;;;;;;5049972;28;20071;-72
2022/09/06 09:00:12;;;;;;;3.22;1.20;;;16.60;65.80;;;;;;5010961;28;20037;-73
2022/09/06 09:02:45;;;;;;;3.03;1.20;;;16.70;65.70;;;;;;5033925;28;20044;-72
2022/09/06 09:05:24;;;;;;;6.78;1.15;;;16.60;65.20;;;;;;5032566;28;20026;-73
2022/09/06 09:08:00;;;;;;;3.13;1.90;;;16.60;65.00;;;;;;5029493;28;20044;-72
2022/09/06 09:10:38;;;;;;;4.22;2.20;;;16.60;64.70;;;;;;5034575;28;20452;-72
2022/09/06 09:13:08;;;;;;;2.00;1.70;;;16.50;64.90;;;;;;5032109;28;20640;-73
2022/09/06 09:15:36;;;;;;;5.80;1.77;;;16.40;65.00;;;;;;5033022;28;20049;-72
2022/09/06 09:18:03;;;;;;;1.98;1.55;;;16.40;65.40;;;;;;5033124;28;20044;-72
2022/09/06 09:20:29;;;;;;;2.22;1.35;;;16.40;65.60;;;;;;5032762;28;20207;-72
2022/09/06 09:22:55;;;;;;;4.50;1.30;;;16.40;65.70;;;;;;5033070;28;20128;-71
2022/09/06 09:25:23;;;;;;;1.48;1.17;;;16.40;65.50;;;;;;5036369;28;20112;-71
2022/09/06 09:27:56;;;;;;;1.90;1.10;;;16.40;65.30;;;;;;5031235;28;20064;-72
2022/09/06 09:30:25;;;;;;;2.45;1.13;;;16.40;65.20;;;;;;5041145;28;20164;-71
2022/09/06 09:32:51;;;;;;;3.30;1.17;;;16.40;65.00;;;;;;5030684;28;20582;-72
2022/09/06 09:35:26;;;;;;;2.55;1.27;;;16.40;65.00;;;;;;5047109;28;20447;-72
2022/09/06 09:38:01;;;;;;;3.45;1.10;;;16.30;65.10;;;;;;5033272;28;20041;-72
2022/09/06 09:40:32;;;;;;;1.10;0.93;;;16.30;65.10;;;;;;5051825;28;20035;-71
2022/09/06 09:43:33;;;;;;;1.13;1.00;;;16.30;64.90;;;;;;5055976;28;20080;-72
2022/09/06 09:46:26;;;;;;;3.90;1.55;;;16.30;65.30;;;;;;4988957;28;20065;-72
2022/09/06 09:49:01;;;;;;;2.47;1.15;;;16.30;65.30;;;;;;5010521;28;20045;-72
2022/09/06 09:51:28;;;;;;;2.20;0.80;;;16.20;64.60;;;;;;4992612;28;20058;-72
2022/09/06 09:54:02;;;;;;;2.05;0.93;;;16.20;64.70;;;;;;5000701;28;20038;-72
2022/09/06 09:56:42;;;;;;;1.42;0.93;;;16.20;64.50;;;;;;5008230;28;20441;-73
2022/09/06 09:59:38;;;;;;;2.80;1.20;;;16.20;65.20;;;;;;5008949;28;20038;-71
2022/09/06 10:02:22;;;;;;;1.40;1.17;;;16.20;64.70;;;;;;4999214;28;20141;-71
2022/09/06 10:04:51;;;;;;;2.45;1.15;;;16.20;65.10;;;;;;5027264;28;20033;-72
2022/09/06 10:07:22;;;;;;;2.60;0.88;;;16.30;65.10;;;;;;5010278;28;20491;-72
2022/09/06 10:09:56;;;;;;;3.75;0.77;;;16.30;65.30;;;;;;5028191;28;20095;-72
2022/09/06 10:12:33;;;;;;;4.85;0.82;;;16.30;65.50;;;;;;5019206;28;20137;-72
2022/09/06 10:15:00;;;;;;;1.10;0.77;;;16.40;65.60;;;;;;5008486;28;20034;-72
2022/09/06 10:17:34;;;;;;;1.40;0.90;;;16.40;65.50;;;;;;5008985;28;20052;-72
2022/09/06 10:20:12;;;;;;;2.00;0.88;;;16.40;65.40;;;;;;5008685;28;20468;-72
2022/09/06 10:23:04;;;;;;;1.90;0.65;;;16.40;65.30;;;;;;5051387;28;20032;-72
2022/09/06 10:25:36;;;;;;;1.83;0.90;;;16.50;65.40;;;;;;5051112;28;20079;-71
2022/09/06 10:28:30;;;;;;;1.52;0.75;;;16.50;65.30;;;;;;5051685;28;20504;-71
2022/09/06 10:31:08;;;;;;;7.68;0.85;;;16.40;65.10;;;;;;5053504;28;20056;-72
2022/09/06 10:33:58;;;;;;;0.98;0.57;;;16.40;65.20;;;;;;5050497;28;20166;-70
2022/09/06 10:36:39;;;;;;;4.15;0.90;;;16.50;65.00;;;;;;5035765;28;20041;-71
2022/09/06 10:39:37;;;;;;;1.13;0.77;;;16.50;64.80;;;;;;5050128;28;20071;-71
2022/09/06 10:42:54;;;;;;;3.55;1.08;;;16.50;64.40;;;;;;5030703;28;20073;-71
2022/09/06 10:45:22;;;;;;;1.33;0.70;;;16.40;64.60;;;;;;4970259;28;20043;-71
2022/09/06 10:48:06;;;;;;;2.72;1.00;;;16.40;64.80;;;;;;4970863;28;20047;-72
2022/09/06 10:50:36;;;;;;;2.40;0.68;;;16.50;64.80;;;;;;4971407;28;20034;-71
2022/09/06 10:53:20;;;;;;;1.23;0.60;;;16.50;64.70;;;;;;4972036;28;20133;-71
2022/09/06 10:55:51;;;;;;;2.05;0.90;;;16.50;64.60;;;;;;4971236;28;20038;-71
2022/09/06 10:58:30;;;;;;;2.78;1.10;;;16.50;64.60;;;;;;4971890;28;20035;-72
2022/09/06 11:00:56;;;;;;;3.17;1.10;;;16.60;64.40;;;;;;4956192;28;20560;-73
2022/09/06 11:03:36;;;;;;;6.95;0.95;;;16.50;64.60;;;;;;4970616;28;20353;-73
2022/09/06 11:06:12;;;;;;;3.55;1.00;;;16.50;64.60;;;;;;4971815;28;20043;-74
2022/09/06 11:09:01;;;;;;;3.95;0.80;;;16.50;64.70;;;;;;4971054;28;20672;-74
2022/09/06 11:11:38;;;;;;;5.90;0.70;;;16.60;64.90;;;;;;4955897;28;20189;-75
2022/09/06 11:14:10;;;;;;;3.15;1.00;;;16.50;64.80;;;;;;4956046;28;20038;-73
2022/09/06 11:16:44;;;;;;;6.05;1.33;;;16.50;65.00;;;;;;4971225;28;20046;-74
2022/09/06 11:19:18;;;;;;;6.20;1.15;;;16.50;64.60;;;;;;4997482;28;20500;-74
2022/09/06 11:22:05;;;;;;;4.13;1.02;;;16.50;64.90;;;;;;5054916;28;20037;-75
2022/09/06 11:24:53;;;;;;;4.95;0.82;;;16.50;64.80;;;;;;5054186;28;20095;-75
2022/09/06 11:27:42;;;;;;;2.13;0.80;;;16.50;64.90;;;;;;5056707;28;20530;-74
2022/09/06 11:30:14;;;;;;;2.20;1.10;;;16.40;65.00;;;;;;5056489;28;20032;-75
2022/09/06 11:32:47;;;;;;;5.03;0.90;;;16.40;65.00;;;;;;5051451;28;20058;-74
2022/09/06 11:35:26;;;;;;;2.40;0.90;;;16.50;65.80;;;;;;5056213;28;20427;-74
2022/09/06 11:38:15;;;;;;;5.75;0.60;;;16.60;66.10;;;;;;5046828;28;20044;-74
2022/09/06 11:40:48;;;;;;;3.03;0.90;;;16.80;66.10;;;;;;5056349;28;20072;-74
2022/09/06 11:43:15;;;;;;;3.17;1.10;;;16.90;65.90;;;;;;5054352;28;20423;-74
2022/09/06 11:45:47;;;;;;;5.47;1.13;;;17.10;65.80;;;;;;5054906;28;20033;-72
2022/09/06 11:48:22;;;;;;;3.83;0.68;;;17.10;65.80;;;;;;5054072;28;20036;-73
2022/09/06 11:50:57;;;;;;;1.77;0.70;;;17.20;65.60;;;;;;5055541;28;20582;-73
2022/09/06 11:53:26;;;;;;;2.83;0.85;;;17.30;65.40;;;;;;5052883;28;20297;-73
2022/09/06 11:56:01;;;;;;;3.05;1.00;;;17.40;65.30;;;;;;5054014;28;20037;-73
2022/09/06 11:58:35;;;;;;;3.70;1.00;;;17.40;65.20;;;;;;5056841;28;20028;-73
2022/09/06 12:01:15;;;;;;;2.58;1.13;;;17.50;64.80;;;;;;5047130;28;20037;-73
2022/09/06 12:03:47;;;;;;;3.55;0.70;;;17.60;64.50;;;;;;5055196;28;20135;-72
2022/09/06 12:06:18;;;;;;;4.68;0.90;;;17.70;64.30;;;;;;5052539;28;20415;-72
2022/09/06 12:08:44;;;;;;;3.90;0.88;;;17.70;64.20;;;;;;5052981;28;20044;-72
2022/09/06 12:11:34;;;;;;;2.25;0.85;;;17.70;64.20;;;;;;5071688;28;20503;-71
2022/09/06 12:14:08;;;;;;;0.80;0.77;;;17.70;64.30;;;;;;5056382;28;20060;-73
2022/09/06 12:17:05;;;;;;;4.75;0.90;;;17.80;64.40;;;;;;5056786;28;20029;-72
2022/09/06 12:19:52;;;;;;;4.60;1.45;;;17.80;64.30;;;;;;5055062;28;20040;-74
2022/09/06 12:25:17;;;;;;;1.05;0.80;;;17.90;64.40;;;;;;5053298;28;20082;-74
2022/09/06 12:28:02;;;;;;;2.97;1.00;;;17.90;64.40;;;;;;5052532;28;20037;-73
2022/09/06 12:30:41;;;;;;;2.20;0.90;;;17.90;64.40;;;;;;5053374;28;20040;-73
2022/09/06 12:33:16;;;;;;;4.00;1.08;;;17.90;64.40;;;;;;5052611;28;20446;-69
2022/09/06 12:35:42;;;;;;;1.73;0.90;;;18.00;64.40;;;;;;5054793;28;20508;-70
2022/09/06 12:38:12;;;;;;;3.55;1.17;;;18.00;64.30;;;;;;5054356;28;20025;-70
2022/09/06 12:40:44;;;;;;;2.20;0.88;;;18.10;64.20;;;;;;5055191;28;20060;-70
2022/09/06 12:43:13;;;;;;;2.78;1.30;;;18.10;64.10;;;;;;5055140;28;20098;-71
2022/09/06 12:45:44;;;;;;;7.22;1.20;;;18.10;64.10;;;;;;5054117;28;20451;-70
2022/09/06 12:48:15;;;;;;;2.53;1.27;;;18.20;64.20;;;;;;5032740;28;20039;-69
2022/09/06 12:50:41;;;;;;;4.03;1.38;;;18.20;64.00;;;;;;5055269;28;20107;-70
2022/09/06 12:53:23;;;;;;;5.80;1.40;;;18.20;63.90;;;;;;5055549;28;20066;-70
2022/09/06 12:56:10;;;;;;;4.65;1.75;;;18.20;63.80;;;;;;5052607;28;20048;-70
2022/09/06 12:58:43;;;;;;;6.60;1.60;;;18.20;63.90;;;;;;5069310;28;20495;-69
2022/09/06 13:01:17;;;;;;;2.95;0.93;;;18.30;63.70;;;;;;5055562;28;20495;-69
2022/09/06 13:06:12;;;;;;;;;;;18.30;62.70;;;;;;5085102;27;20450;-76
2022/09/06 13:08:54;;;;;;;4.93;1.70;;;19.10;63.20;;;;;;5041806;28;20354;-74
2022/09/06 13:11:49;;;;;;;5.07;1.42;;;19.20;61.30;;;;;;5042669;28;20040;-73
2022/09/06 13:14:28;;;;;;;2.78;1.30;;;19.10;60.80;;;;;;5065911;28;20041;-73
2022/09/06 13:16:56;;;;;;;2.90;1.40;;;19.00;60.90;;;;;;5043593;28;20382;-73